sensor_id;sensor_type;location;lat;lon;timestamp;temperature;humidity
40059;SHT31;25763;49.972;8.568;2023-02-23T00:01:35;9.15;80.86
40059;SHT31;25763;49.972;8.568;2023-02-23T00:04:00;9.14;80.85
40059;SHT31;25763;49.972;8.568;2023-02-23T00:06:28;9.14;80.90
40059;SHT31;25763;49.972;8.568;2023-02-23T00:08:54;9.12;80.83
40059;SHT31;25763;49.972;8.568;2023-02-23T00:11:20;9.15;80.96
40059;SHT31;25763;49.972;8.568;2023-02-23T00:13:48;9.18;81.18
40059;SHT31;25763;49.972;8.568;2023-02-23T00:16:18;9.18;81.17
40059;SHT31;25763;49.972;8.568;2023-02-23T00:18:55;9.22;81.10
40059;SHT31;25763;49.972;8.568;2023-02-23T00:23:50;9.23;81.00
40059;SHT31;25763;49.972;8.568;2023-02-23T00:26:17;9.24;81.20
40059;SHT31;25763;49.972;8.568;2023-02-23T00:28:45;9.22;81.26
40059;SHT31;25763;49.972;8.568;2023-02-23T00:31:11;9.27;81.39
40059;SHT31;25763;49.972;8.568;2023-02-23T00:33:37;9.27;81.37
40059;SHT31;25763;49.972;8.568;2023-02-23T00:36:05;9.29;81.61
40059;SHT31;25763;49.972;8.568;2023-02-23T00:38:32;9.30;81.60
40059;SHT31;25763;49.972;8.568;2023-02-23T00:41:03;9.32;81.52
40059;SHT31;25763;49.972;8.568;2023-02-23T00:43:33;9.36;81.50
40059;SHT31;25763;49.972;8.568;2023-02-23T00:45:58;9.36;81.58
40059;SHT31;25763;49.972;8.568;2023-02-23T00:48:24;9.39;81.63
40059;SHT31;25763;49.972;8.568;2023-02-23T00:50:57;9.41;81.66
40059;SHT31;25763;49.972;8.568;2023-02-23T00:53:22;9.43;81.56
40059;SHT31;25763;49.972;8.568;2023-02-23T00:55:48;9.46;81.60
40059;SHT31;25763;49.972;8.568;2023-02-23T00:58:13;9.44;81.58
40059;SHT31;25763;49.972;8.568;2023-02-23T01:00:39;9.47;81.62
40059;SHT31;25763;49.972;8.568;2023-02-23T01:03:06;9.44;81.73
40059;SHT31;25763;49.972;8.568;2023-02-23T01:05:35;9.37;82.71
40059;SHT31;25763;49.972;8.568;2023-02-23T01:08:00;9.37;82.99
40059;SHT31;25763;49.972;8.568;2023-02-23T01:10:25;9.41;82.93
40059;SHT31;25763;49.972;8.568;2023-02-23T01:12:51;9.36;83.42
40059;SHT31;25763;49.972;8.568;2023-02-23T01:15:18;9.40;83.43
40059;SHT31;25763;49.972;8.568;2023-02-23T01:17:45;9.37;83.94
40059;SHT31;25763;49.972;8.568;2023-02-23T01:20:13;9.46;83.57
40059;SHT31;25763;49.972;8.568;2023-02-23T01:22:45;9.40;83.83
40059;SHT31;25763;49.972;8.568;2023-02-23T01:25:10;9.46;83.97
40059;SHT31;25763;49.972;8.568;2023-02-23T01:27:37;9.37;84.40
40059;SHT31;25763;49.972;8.568;2023-02-23T01:30:04;9.43;84.46
40059;SHT31;25763;49.972;8.568;2023-02-23T01:32:29;9.37;84.77
40059;SHT31;25763;49.972;8.568;2023-02-23T01:34:54;9.41;84.77
40059;SHT31;25763;49.972;8.568;2023-02-23T01:37:20;9.40;85.07
40059;SHT31;25763;49.972;8.568;2023-02-23T01:39:45;9.37;85.24
40059;SHT31;25763;49.972;8.568;2023-02-23T01:42:12;9.34;85.62
40059;SHT31;25763;49.972;8.568;2023-02-23T01:47:04;9.36;85.60
40059;SHT31;25763;49.972;8.568;2023-02-23T01:49:32;9.34;85.79
40059;SHT31;25763;49.972;8.568;2023-02-23T01:52:10;9.34;86.01
40059;SHT31;25763;49.972;8.568;2023-02-23T01:54:40;9.46;85.69
40059;SHT31;25763;49.972;8.568;2023-02-23T01:57:10;9.46;85.38
40059;SHT31;25763;49.972;8.568;2023-02-23T01:59:40;9.48;85.30
40059;SHT31;25763;49.972;8.568;2023-02-23T02:02:07;9.51;85.02
40059;SHT31;25763;49.972;8.568;2023-02-23T02:04:35;9.54;84.98
40059;SHT31;25763;49.972;8.568;2023-02-23T02:07:16;9.52;84.69
40059;SHT31;25763;49.972;8.568;2023-02-23T02:09:43;9.51;84.62
40059;SHT31;25763;49.972;8.568;2023-02-23T02:12:28;9.54;84.59
40059;SHT31;25763;49.972;8.568;2023-02-23T02:14:55;9.55;84.57
40059;SHT31;25763;49.972;8.568;2023-02-23T02:17:49;9.57;84.47
40059;SHT31;25763;49.972;8.568;2023-02-23T02:25:52;9.57;84.41
40059;SHT31;25763;49.972;8.568;2023-02-23T02:36:56;9.51;84.38
40059;SHT31;25763;49.972;8.568;2023-02-23T02:39:45;9.52;84.42
40059;SHT31;25763;49.972;8.568;2023-02-23T02:48:07;9.55;85.25
40059;SHT31;25763;49.972;8.568;2023-02-23T02:50:51;9.54;85.65
40059;SHT31;25763;49.972;8.568;2023-02-23T02:56:05;9.57;85.51
40059;SHT31;25763;49.972;8.568;2023-02-23T02:58:32;9.57;85.78
40059;SHT31;25763;49.972;8.568;2023-02-23T03:01:05;9.58;85.36
40059;SHT31;25763;49.972;8.568;2023-02-23T03:03:50;9.58;85.65
40059;SHT31;25763;49.972;8.568;2023-02-23T03:06:44;9.61;85.62
40059;SHT31;25763;49.972;8.568;2023-02-23T03:09:54;9.55;85.20
40059;SHT31;25763;49.972;8.568;2023-02-23T03:13:00;9.58;85.00
40059;SHT31;25763;49.972;8.568;2023-02-23T03:16:01;9.58;84.85
40059;SHT31;25763;49.972;8.568;2023-02-23T03:22:17;9.59;84.78
40059;SHT31;25763;49.972;8.568;2023-02-23T03:25:08;9.59;84.36
40059;SHT31;25763;49.972;8.568;2023-02-23T03:28:12;9.58;84.79
40059;SHT31;25763;49.972;8.568;2023-02-23T03:31:36;9.59;84.60
40059;SHT31;25763;49.972;8.568;2023-02-23T03:34:27;9.59;85.16
40059;SHT31;25763;49.972;8.568;2023-02-23T03:37:37;9.64;85.16
40059;SHT31;25763;49.972;8.568;2023-02-23T03:40:25;9.61;85.16
40059;SHT31;25763;49.972;8.568;2023-02-23T03:43:16;9.64;85.22
40059;SHT31;25763;49.972;8.568;2023-02-23T03:46:02;9.62;85.43
40059;SHT31;25763;49.972;8.568;2023-02-23T03:48:49;9.64;85.41
40059;SHT31;25763;49.972;8.568;2023-02-23T03:51:35;9.64;85.50
40059;SHT31;25763;49.972;8.568;2023-02-23T03:54:28;9.65;85.73
40059;SHT31;25763;49.972;8.568;2023-02-23T03:57:16;9.69;85.65
40059;SHT31;25763;49.972;8.568;2023-02-23T04:00:04;9.69;85.65
40059;SHT31;25763;49.972;8.568;2023-02-23T04:02:51;9.71;85.77
40059;SHT31;25763;49.972;8.568;2023-02-23T04:05:38;9.68;85.80
40059;SHT31;25763;49.972;8.568;2023-02-23T04:08:27;9.71;86.08
40059;SHT31;25763;49.972;8.568;2023-02-23T04:14:28;9.72;86.55
40059;SHT31;25763;49.972;8.568;2023-02-23T04:16:56;9.72;86.55
40059;SHT31;25763;49.972;8.568;2023-02-23T04:19:25;9.69;86.82
40059;SHT31;25763;49.972;8.568;2023-02-23T04:21:52;9.68;86.80
40059;SHT31;25763;49.972;8.568;2023-02-23T04:24:17;9.64;87.16
40059;SHT31;25763;49.972;8.568;2023-02-23T04:26:42;9.62;87.20
40059;SHT31;25763;49.972;8.568;2023-02-23T04:29:10;9.64;87.44
40059;SHT31;25763;49.972;8.568;2023-02-23T04:31:35;9.62;87.36
40059;SHT31;25763;49.972;8.568;2023-02-23T04:34:00;9.59;87.32
40059;SHT31;25763;49.972;8.568;2023-02-23T04:36:26;9.58;87.82
40059;SHT31;25763;49.972;8.568;2023-02-23T04:38:51;9.59;87.79
40059;SHT31;25763;49.972;8.568;2023-02-23T04:41:17;9.65;87.81
40059;SHT31;25763;49.972;8.568;2023-02-23T04:43:44;9.61;87.91
40059;SHT31;25763;49.972;8.568;2023-02-23T04:46:09;9.67;87.97
40059;SHT31;25763;49.972;8.568;2023-02-23T04:48:34;9.67;87.97
40059;SHT31;25763;49.972;8.568;2023-02-23T04:51:00;9.67;88.00
40059;SHT31;25763;49.972;8.568;2023-02-23T04:53:25;9.69;88.17
40059;SHT31;25763;49.972;8.568;2023-02-23T04:55:51;9.68;88.11
40059;SHT31;25763;49.972;8.568;2023-02-23T04:58:16;9.65;88.04
40059;SHT31;25763;49.972;8.568;2023-02-23T05:00:41;9.62;88.20
40059;SHT31;25763;49.972;8.568;2023-02-23T05:03:07;9.62;88.37
40059;SHT31;25763;49.972;8.568;2023-02-23T05:05:32;9.69;88.37
40059;SHT31;25763;49.972;8.568;2023-02-23T05:07:57;9.72;88.24
40059;SHT31;25763;49.972;8.568;2023-02-23T05:10:23;9.71;88.18
40059;SHT31;25763;49.972;8.568;2023-02-23T05:12:48;9.69;88.03
40059;SHT31;25763;49.972;8.568;2023-02-23T05:15:14;9.72;88.08
40059;SHT31;25763;49.972;8.568;2023-02-23T05:17:40;9.75;88.00
40059;SHT31;25763;49.972;8.568;2023-02-23T05:20:07;9.78;87.78
40059;SHT31;25763;49.972;8.568;2023-02-23T05:22:33;9.78;87.78
40059;SHT31;25763;49.972;8.568;2023-02-23T05:24:58;9.69;87.66
40059;SHT31;25763;49.972;8.568;2023-02-23T05:27:23;9.74;87.80
40059;SHT31;25763;49.972;8.568;2023-02-23T05:29:49;9.74;87.73
40059;SHT31;25763;49.972;8.568;2023-02-23T05:32:14;9.71;87.93
40059;SHT31;25763;49.972;8.568;2023-02-23T05:34:39;9.74;88.06
40059;SHT31;25763;49.972;8.568;2023-02-23T05:37:05;9.78;88.10
40059;SHT31;25763;49.972;8.568;2023-02-23T05:39:30;9.79;87.90
40059;SHT31;25763;49.972;8.568;2023-02-23T05:41:56;9.74;87.93
40059;SHT31;25763;49.972;8.568;2023-02-23T05:44:21;9.68;88.09
40059;SHT31;25763;49.972;8.568;2023-02-23T05:46:46;9.71;88.20
40059;SHT31;25763;49.972;8.568;2023-02-23T05:49:12;9.69;88.27
40059;SHT31;25763;49.972;8.568;2023-02-23T05:51:37;9.69;88.37
40059;SHT31;25763;49.972;8.568;2023-02-23T05:54:04;9.74;88.51
40059;SHT31;25763;49.972;8.568;2023-02-23T05:56:29;9.74;88.34
40059;SHT31;25763;49.972;8.568;2023-02-23T05:58:56;9.75;88.29
40059;SHT31;25763;49.972;8.568;2023-02-23T06:01:22;9.77;88.36
40059;SHT31;25763;49.972;8.568;2023-02-23T06:03:49;9.78;88.29
40059;SHT31;25763;49.972;8.568;2023-02-23T06:06:15;9.83;88.20
40059;SHT31;25763;49.972;8.568;2023-02-23T06:08:40;9.81;88.15
40059;SHT31;25763;49.972;8.568;2023-02-23T06:11:06;9.85;88.03
40059;SHT31;25763;49.972;8.568;2023-02-23T06:13:32;9.85;88.04
40059;SHT31;25763;49.972;8.568;2023-02-23T06:15:58;9.88;87.82
40059;SHT31;25763;49.972;8.568;2023-02-23T06:18:25;9.88;87.79
40059;SHT31;25763;49.972;8.568;2023-02-23T06:20:50;9.92;87.79
40059;SHT31;25763;49.972;8.568;2023-02-23T06:23:16;9.83;87.73
40059;SHT31;25763;49.972;8.568;2023-02-23T06:25:45;9.88;87.86
40059;SHT31;25763;49.972;8.568;2023-02-23T06:28:11;9.82;87.90
40059;SHT31;25763;49.972;8.568;2023-02-23T06:30:37;9.81;88.04
40059;SHT31;25763;49.972;8.568;2023-02-23T06:33:03;9.86;88.09
40059;SHT31;25763;49.972;8.568;2023-02-23T06:35:29;9.85;88.07
40059;SHT31;25763;49.972;8.568;2023-02-23T06:37:56;9.93;87.94
40059;SHT31;25763;49.972;8.568;2023-02-23T06:40:23;9.86;87.70
40059;SHT31;25763;49.972;8.568;2023-02-23T06:42:48;9.83;87.90
40059;SHT31;25763;49.972;8.568;2023-02-23T06:45:14;9.86;88.13
40059;SHT31;25763;49.972;8.568;2023-02-23T06:47:40;9.89;87.95
40059;SHT31;25763;49.972;8.568;2023-02-23T06:50:08;9.83;88.04
40059;SHT31;25763;49.972;8.568;2023-02-23T06:52:34;9.91;88.08
40059;SHT31;25763;49.972;8.568;2023-02-23T06:54:59;9.85;88.19
40059;SHT31;25763;49.972;8.568;2023-02-23T06:57:25;9.88;88.09
40059;SHT31;25763;49.972;8.568;2023-02-23T06:59:50;9.88;88.12
40059;SHT31;25763;49.972;8.568;2023-02-23T07:02:16;9.91;88.08
40059;SHT31;25763;49.972;8.568;2023-02-23T07:04:41;9.91;88.20
40059;SHT31;25763;49.972;8.568;2023-02-23T07:07:07;9.89;88.30
40059;SHT31;25763;49.972;8.568;2023-02-23T07:09:33;9.88;88.36
40059;SHT31;25763;49.972;8.568;2023-02-23T07:11:59;9.86;88.60
40059;SHT31;25763;49.972;8.568;2023-02-23T07:14:24;9.89;88.57
40059;SHT31;25763;49.972;8.568;2023-02-23T07:16:49;9.86;88.61
40059;SHT31;25763;49.972;8.568;2023-02-23T07:19:15;9.93;88.64
40059;SHT31;25763;49.972;8.568;2023-02-23T07:21:40;9.91;88.77
40059;SHT31;25763;49.972;8.568;2023-02-23T07:24:06;9.85;88.87
40059;SHT31;25763;49.972;8.568;2023-02-23T07:26:32;9.79;89.17
40059;SHT31;25763;49.972;8.568;2023-02-23T07:28:58;9.88;89.21
40059;SHT31;25763;49.972;8.568;2023-02-23T07:31:24;9.89;89.14
40059;SHT31;25763;49.972;8.568;2023-02-23T07:33:51;9.92;89.09
40059;SHT31;25763;49.972;8.568;2023-02-23T07:36:19;9.92;89.12
40059;SHT31;25763;49.972;8.568;2023-02-23T07:38:45;9.98;89.16
40059;SHT31;25763;49.972;8.568;2023-02-23T07:41:10;9.98;89.09
40059;SHT31;25763;49.972;8.568;2023-02-23T07:43:35;9.96;89.03
40059;SHT31;25763;49.972;8.568;2023-02-23T07:46:01;10.00;89.04
40059;SHT31;25763;49.972;8.568;2023-02-23T07:48:27;10.09;88.91
40059;SHT31;25763;49.972;8.568;2023-02-23T07:50:52;10.06;88.97
40059;SHT31;25763;49.972;8.568;2023-02-23T07:53:18;10.05;88.91
40059;SHT31;25763;49.972;8.568;2023-02-23T07:55:43;10.13;88.97
40059;SHT31;25763;49.972;8.568;2023-02-23T07:58:09;10.24;88.78
40059;SHT31;25763;49.972;8.568;2023-02-23T08:00:35;10.35;88.70
40059;SHT31;25763;49.972;8.568;2023-02-23T08:03:02;10.40;88.53
40059;SHT31;25763;49.972;8.568;2023-02-23T08:05:28;10.49;88.46
40059;SHT31;25763;49.972;8.568;2023-02-23T08:07:54;10.55;88.34
40059;SHT31;25763;49.972;8.568;2023-02-23T08:10:21;10.57;88.09
40059;SHT31;25763;49.972;8.568;2023-02-23T08:12:46;10.38;88.16
40059;SHT31;25763;49.972;8.568;2023-02-23T08:15:12;10.42;88.11
40059;SHT31;25763;49.972;8.568;2023-02-23T08:17:37;10.46;87.96
40059;SHT31;25763;49.972;8.568;2023-02-23T08:20:04;10.45;87.98
40059;SHT31;25763;49.972;8.568;2023-02-23T08:22:30;10.51;87.93
40059;SHT31;25763;49.972;8.568;2023-02-23T08:24:55;10.59;88.03
40059;SHT31;25763;49.972;8.568;2023-02-23T08:27:21;10.61;87.80
40059;SHT31;25763;49.972;8.568;2023-02-23T08:29:46;10.61;87.79
40059;SHT31;25763;49.972;8.568;2023-02-23T08:32:11;10.69;87.73
40059;SHT31;25763;49.972;8.568;2023-02-23T08:34:39;10.76;87.76
40059;SHT31;25763;49.972;8.568;2023-02-23T08:37:04;10.82;87.53
40059;SHT31;25763;49.972;8.568;2023-02-23T08:39:29;10.87;87.38
40059;SHT31;25763;49.972;8.568;2023-02-23T08:41:55;10.83;87.20
40059;SHT31;25763;49.972;8.568;2023-02-23T08:44:20;10.77;87.17
40059;SHT31;25763;49.972;8.568;2023-02-23T08:46:46;10.76;87.33
40059;SHT31;25763;49.972;8.568;2023-02-23T08:49:11;10.93;87.20
40059;SHT31;25763;49.972;8.568;2023-02-23T08:51:37;10.85;87.10
40059;SHT31;25763;49.972;8.568;2023-02-23T08:54:02;10.90;87.06
40059;SHT31;25763;49.972;8.568;2023-02-23T08:56:27;10.77;87.29
40059;SHT31;25763;49.972;8.568;2023-02-23T08:58:53;10.92;87.12
40059;SHT31;25763;49.972;8.568;2023-02-23T09:01:19;10.99;86.96
40059;SHT31;25763;49.972;8.568;2023-02-23T09:03:46;10.89;86.91
40059;SHT31;25763;49.972;8.568;2023-02-23T09:06:15;10.89;86.94
40059;SHT31;25763;49.972;8.568;2023-02-23T09:08:41;10.92;86.95
40059;SHT31;25763;49.972;8.568;2023-02-23T09:11:06;11.04;86.90
40059;SHT31;25763;49.972;8.568;2023-02-23T09:13:31;11.01;86.71
40059;SHT31;25763;49.972;8.568;2023-02-23T09:15:57;10.94;86.72
40059;SHT31;25763;49.972;8.568;2023-02-23T09:18:22;10.96;86.67
40059;SHT31;25763;49.972;8.568;2023-02-23T09:20:48;11.06;86.72
40059;SHT31;25763;49.972;8.568;2023-02-23T09:23:14;10.97;86.53
40059;SHT31;25763;49.972;8.568;2023-02-23T09:25:43;11.07;86.53
40059;SHT31;25763;49.972;8.568;2023-02-23T09:28:18;11.10;86.32
40059;SHT31;25763;49.972;8.568;2023-02-23T09:30:45;11.20;86.24
40059;SHT31;25763;49.972;8.568;2023-02-23T09:33:11;11.22;86.09
40059;SHT31;25763;49.972;8.568;2023-02-23T09:35:37;11.32;86.17
40059;SHT31;25763;49.972;8.568;2023-02-23T09:38:05;11.34;85.81
40059;SHT31;25763;49.972;8.568;2023-02-23T09:40:47;11.35;85.68
40059;SHT31;25763;49.972;8.568;2023-02-23T09:43:47;11.48;85.67
40059;SHT31;25763;49.972;8.568;2023-02-23T09:48:45;11.83;85.16
40059;SHT31;25763;49.972;8.568;2023-02-23T09:51:16;11.84;84.58
40059;SHT31;25763;49.972;8.568;2023-02-23T09:53:46;11.83;84.39
40059;SHT31;25763;49.972;8.568;2023-02-23T09:56:17;11.76;84.20
40059;SHT31;25763;49.972;8.568;2023-02-23T09:58:44;11.97;84.53
40059;SHT31;25763;49.972;8.568;2023-02-23T10:03:56;12.11;83.67
40059;SHT31;25763;49.972;8.568;2023-02-23T10:06:23;12.11;83.67
40059;SHT31;25763;49.972;8.568;2023-02-23T10:20:26;11.93;83.63
40059;SHT31;25763;49.972;8.568;2023-02-23T10:22:56;11.99;83.63
40059;SHT31;25763;49.972;8.568;2023-02-23T10:25:29;12.38;83.87
40059;SHT31;25763;49.972;8.568;2023-02-23T10:27:57;12.47;83.27
40059;SHT31;25763;49.972;8.568;2023-02-23T10:30:29;12.49;82.72
40059;SHT31;25763;49.972;8.568;2023-02-23T10:33:23;12.29;82.46
40059;SHT31;25763;49.972;8.568;2023-02-23T10:35:57;12.33;82.76
40059;SHT31;25763;49.972;8.568;2023-02-23T10:38:24;12.38;82.82
40059;SHT31;25763;49.972;8.568;2023-02-23T10:40:53;12.28;82.39
40059;SHT31;25763;49.972;8.568;2023-02-23T10:43:19;12.28;82.01
40059;SHT31;25763;49.972;8.568;2023-02-23T10:45:47;12.47;82.03
40059;SHT31;25763;49.972;8.568;2023-02-23T10:50:41;12.75;81.62
40059;SHT31;25763;49.972;8.568;2023-02-23T10:56:04;13.09;81.01
40059;SHT31;25763;49.972;8.568;2023-02-23T10:58:47;12.92;80.40
40059;SHT31;25763;49.972;8.568;2023-02-23T11:01:16;12.82;80.68
40059;SHT31;25763;49.972;8.568;2023-02-23T11:03:55;12.94;81.04
40059;SHT31;25763;49.972;8.568;2023-02-23T11:08:54;12.88;80.56
40059;SHT31;25763;49.972;8.568;2023-02-23T11:11:27;13.06;80.18
40059;SHT31;25763;49.972;8.568;2023-02-23T11:13:54;12.98;79.63
40059;SHT31;25763;49.972;8.568;2023-02-23T11:16:37;12.95;79.70
40059;SHT31;25763;49.972;8.568;2023-02-23T11:19:04;12.94;79.58
40059;SHT31;25763;49.972;8.568;2023-02-23T11:21:33;13.11;79.70
40059;SHT31;25763;49.972;8.568;2023-02-23T11:24:23;13.18;78.92
40059;SHT31;25763;49.972;8.568;2023-02-23T11:26:52;13.51;78.79
40059;SHT31;25763;49.972;8.568;2023-02-23T11:29:39;13.88;77.98
40059;SHT31;25763;49.972;8.568;2023-02-23T11:32:08;13.86;76.48
40059;SHT31;25763;49.972;8.568;2023-02-23T11:34:38;13.74;75.45
40059;SHT31;25763;49.972;8.568;2023-02-23T11:37:09;13.64;75.99
40059;SHT31;25763;49.972;8.568;2023-02-23T11:42:54;13.53;76.18
40059;SHT31;25763;49.972;8.568;2023-02-23T11:45:21;13.73;76.70
40059;SHT31;25763;49.972;8.568;2023-02-23T11:47:53;13.62;75.64
40059;SHT31;25763;49.972;8.568;2023-02-23T11:50:46;13.55;75.78
40059;SHT31;25763;49.972;8.568;2023-02-23T11:53:15;13.64;76.33
40059;SHT31;25763;49.972;8.568;2023-02-23T11:55:49;13.48;76.44
40059;SHT31;25763;49.972;8.568;2023-02-23T11:58:24;13.30;76.16
40059;SHT31;25763;49.972;8.568;2023-02-23T12:01:03;13.41;76.68
40059;SHT31;25763;49.972;8.568;2023-02-23T12:03:35;13.40;76.95
40059;SHT31;25763;49.972;8.568;2023-02-23T12:06:00;13.14;76.87
40059;SHT31;25763;49.972;8.568;2023-02-23T12:08:49;13.29;77.24
40059;SHT31;25763;49.972;8.568;2023-02-23T12:11:25;13.36;76.91
40059;SHT31;25763;49.972;8.568;2023-02-23T12:14:02;13.51;76.76
40059;SHT31;25763;49.972;8.568;2023-02-23T12:16:41;13.51;75.81
40059;SHT31;25763;49.972;8.568;2023-02-23T12:21:41;13.78;75.84
40059;SHT31;25763;49.972;8.568;2023-02-23T12:26:52;13.64;74.15
40059;SHT31;25763;49.972;8.568;2023-02-23T12:32:10;13.48;73.89
40059;SHT31;25763;49.972;8.568;2023-02-23T12:34:48;13.36;74.21
40059;SHT31;25763;49.972;8.568;2023-02-23T12:37:27;13.50;74.68
40059;SHT31;25763;49.972;8.568;2023-02-23T12:40:12;13.47;74.49
40059;SHT31;25763;49.972;8.568;2023-02-23T12:42:57;13.34;74.23
40059;SHT31;25763;49.972;8.568;2023-02-23T12:45:48;13.16;74.65
40059;SHT31;25763;49.972;8.568;2023-02-23T12:51:58;13.12;75.45
40059;SHT31;25763;49.972;8.568;2023-02-23T12:54:04;12.95;75.62
40059;SHT31;25763;49.972;8.568;2023-02-23T12:56:31;12.99;75.82
40059;SHT31;25763;49.972;8.568;2023-02-23T13:01:45;12.95;76.29
40059;SHT31;25763;49.972;8.568;2023-02-23T13:07:21;13.01;76.20
40059;SHT31;25763;49.972;8.568;2023-02-23T13:09:52;13.04;75.94
40059;SHT31;25763;49.972;8.568;2023-02-23T13:12:42;13.04;76.10
40059;SHT31;25763;49.972;8.568;2023-02-23T13:18:39;13.12;75.63
40059;SHT31;25763;49.972;8.568;2023-02-23T13:21:14;13.09;74.99
40059;SHT31;25763;49.972;8.568;2023-02-23T13:23:55;13.19;75.36
40059;SHT31;25763;49.972;8.568;2023-02-23T13:27:11;13.23;74.79
40059;SHT31;25763;49.972;8.568;2023-02-23T13:29:35;13.23;74.29
40059;SHT31;25763;49.972;8.568;2023-02-23T13:32:03;13.40;74.92
40059;SHT31;25763;49.972;8.568;2023-02-23T13:34:38;13.59;74.87
40059;SHT31;25763;49.972;8.568;2023-02-23T13:37:07;13.68;74.21
40059;SHT31;25763;49.972;8.568;2023-02-23T13:39:44;13.70;73.70
40059;SHT31;25763;49.972;8.568;2023-02-23T13:47:56;13.68;73.94
40059;SHT31;25763;49.972;8.568;2023-02-23T13:50:41;13.71;74.06
40059;SHT31;25763;49.972;8.568;2023-02-23T13:53:39;13.74;73.94
40059;SHT31;25763;49.972;8.568;2023-02-23T13:56:08;13.73;73.90
40059;SHT31;25763;49.972;8.568;2023-02-23T13:58:35;13.75;74.17
40059;SHT31;25763;49.972;8.568;2023-02-23T14:01:08;13.74;74.04
40059;SHT31;25763;49.972;8.568;2023-02-23T14:03:41;13.86;73.96
40059;SHT31;25763;49.972;8.568;2023-02-23T14:06:12;13.93;73.90
40059;SHT31;25763;49.972;8.568;2023-02-23T14:08:38;13.89;73.59
40059;SHT31;25763;49.972;8.568;2023-02-23T14:11:06;13.85;73.77
40059;SHT31;25763;49.972;8.568;2023-02-23T14:13:33;13.79;74.01
40059;SHT31;25763;49.972;8.568;2023-02-23T14:16:18;13.81;73.86
40059;SHT31;25763;49.972;8.568;2023-02-23T14:21:50;13.55;74.31
40059;SHT31;25763;49.972;8.568;2023-02-23T14:24:25;13.51;74.22
40059;SHT31;25763;49.972;8.568;2023-02-23T14:29:37;13.58;73.17
40059;SHT31;25763;49.972;8.568;2023-02-23T14:37:59;13.36;72.37
40059;SHT31;25763;49.972;8.568;2023-02-23T14:40:33;13.16;72.89
40059;SHT31;25763;49.972;8.568;2023-02-23T14:43:31;13.24;73.22
40059;SHT31;25763;49.972;8.568;2023-02-23T14:45:57;13.22;72.94
40059;SHT31;25763;49.972;8.568;2023-02-23T14:48:24;13.19;73.40
40059;SHT31;25763;49.972;8.568;2023-02-23T14:50:50;13.15;72.90
40059;SHT31;25763;49.972;8.568;2023-02-23T14:53:21;13.04;72.83
40059;SHT31;25763;49.972;8.568;2023-02-23T14:55:47;13.04;73.15
40059;SHT31;25763;49.972;8.568;2023-02-23T14:58:31;13.06;72.90
40059;SHT31;25763;49.972;8.568;2023-02-23T15:00:58;13.04;72.87
40059;SHT31;25763;49.972;8.568;2023-02-23T15:03:23;13.18;73.22
40059;SHT31;25763;49.972;8.568;2023-02-23T15:05:51;13.15;72.84
40059;SHT31;25763;49.972;8.568;2023-02-23T15:08:22;13.15;72.77
40059;SHT31;25763;49.972;8.568;2023-02-23T15:10:50;13.09;72.90
40059;SHT31;25763;49.972;8.568;2023-02-23T15:13:27;13.16;73.17
40059;SHT31;25763;49.972;8.568;2023-02-23T15:15:53;13.11;72.96
40059;SHT31;25763;49.972;8.568;2023-02-23T15:21:41;13.14;73.33
40059;SHT31;25763;49.972;8.568;2023-02-23T15:24:11;13.11;73.45
40059;SHT31;25763;49.972;8.568;2023-02-23T15:26:39;13.12;73.51
40059;SHT31;25763;49.972;8.568;2023-02-23T15:29:17;13.09;73.71
40059;SHT31;25763;49.972;8.568;2023-02-23T15:31:45;13.14;74.22
40059;SHT31;25763;49.972;8.568;2023-02-23T15:34:22;13.15;74.32
40059;SHT31;25763;49.972;8.568;2023-02-23T15:37:12;13.19;74.44
40059;SHT31;25763;49.972;8.568;2023-02-23T15:40:03;13.12;74.31
40059;SHT31;25763;49.972;8.568;2023-02-23T15:42:38;13.12;74.13
40059;SHT31;25763;49.972;8.568;2023-02-23T15:45:30;13.15;74.40
40059;SHT31;25763;49.972;8.568;2023-02-23T15:47:59;13.06;74.01
40059;SHT31;25763;49.972;8.568;2023-02-23T15:50:28;13.01;74.66
40059;SHT31;25763;49.972;8.568;2023-02-23T15:53:01;13.02;74.58
40059;SHT31;25763;49.972;8.568;2023-02-23T15:55:34;12.99;74.47
40059;SHT31;25763;49.972;8.568;2023-02-23T15:58:10;12.95;74.13
40059;SHT31;25763;49.972;8.568;2023-02-23T16:00:42;12.84;73.79
40059;SHT31;25763;49.972;8.568;2023-02-23T16:03:27;12.74;73.58
40059;SHT31;25763;49.972;8.568;2023-02-23T16:06:05;12.65;73.76
40059;SHT31;25763;49.972;8.568;2023-02-23T16:08:31;12.65;73.90
40059;SHT31;25763;49.972;8.568;2023-02-23T16:11:15;12.61;73.93
40059;SHT31;25763;49.972;8.568;2023-02-23T16:13:44;12.53;73.97
40059;SHT31;25763;49.972;8.568;2023-02-23T16:16:11;12.52;74.20
40059;SHT31;25763;49.972;8.568;2023-02-23T16:18:50;12.42;74.09
40059;SHT31;25763;49.972;8.568;2023-02-23T16:21:20;12.46;74.15
40059;SHT31;25763;49.972;8.568;2023-02-23T16:23:48;12.35;74.29
40059;SHT31;25763;49.972;8.568;2023-02-23T16:26:17;12.32;74.43
40059;SHT31;25763;49.972;8.568;2023-02-23T16:28:53;12.32;74.43
40059;SHT31;25763;49.972;8.568;2023-02-23T16:31:23;12.32;74.53
40059;SHT31;25763;49.972;8.568;2023-02-23T16:33:55;12.28;74.73
40059;SHT31;25763;49.972;8.568;2023-02-23T16:36:34;12.26;74.72
40059;SHT31;25763;49.972;8.568;2023-02-23T16:39:13;12.24;74.73
40059;SHT31;25763;49.972;8.568;2023-02-23T16:41:42;12.21;74.76
40059;SHT31;25763;49.972;8.568;2023-02-23T16:44:13;12.22;74.87
40059;SHT31;25763;49.972;8.568;2023-02-23T16:49:29;12.18;75.11
40059;SHT31;25763;49.972;8.568;2023-02-23T16:51:56;12.08;75.23
40059;SHT31;25763;49.972;8.568;2023-02-23T16:54:21;12.04;75.34
40059;SHT31;25763;49.972;8.568;2023-02-23T16:56:47;11.98;75.40
40059;SHT31;25763;49.972;8.568;2023-02-23T16:59:16;11.98;75.44
40059;SHT31;25763;49.972;8.568;2023-02-23T17:01:43;11.98;75.48
40059;SHT31;25763;49.972;8.568;2023-02-23T17:04:12;11.93;75.49
40059;SHT31;25763;49.972;8.568;2023-02-23T17:06:40;11.91;75.52
40059;SHT31;25763;49.972;8.568;2023-02-23T17:09:10;11.88;75.54
40059;SHT31;25763;49.972;8.568;2023-02-23T17:11:38;11.88;75.58
40059;SHT31;25763;49.972;8.568;2023-02-23T17:14:03;11.87;75.64
40059;SHT31;25763;49.972;8.568;2023-02-23T17:16:28;11.84;75.64
40059;SHT31;25763;49.972;8.568;2023-02-23T17:18:54;11.84;75.73
40059;SHT31;25763;49.972;8.568;2023-02-23T17:21:19;11.81;75.74
40059;SHT31;25763;49.972;8.568;2023-02-23T17:23:48;11.77;75.75
40059;SHT31;25763;49.972;8.568;2023-02-23T17:26:22;11.76;75.75
40059;SHT31;25763;49.972;8.568;2023-02-23T17:28:48;11.74;75.86
40059;SHT31;25763;49.972;8.568;2023-02-23T17:31:15;11.71;75.82
40059;SHT31;25763;49.972;8.568;2023-02-23T17:33:41;11.73;75.85
40059;SHT31;25763;49.972;8.568;2023-02-23T17:36:10;11.70;76.00
40059;SHT31;25763;49.972;8.568;2023-02-23T17:38:36;11.61;75.99
40059;SHT31;25763;49.972;8.568;2023-02-23T17:41:08;11.59;75.97
40059;SHT31;25763;49.972;8.568;2023-02-23T17:43:34;11.58;76.09
40059;SHT31;25763;49.972;8.568;2023-02-23T17:46:00;11.61;76.06
40059;SHT31;25763;49.972;8.568;2023-02-23T17:48:26;11.61;76.12